Time;durP1;ratioP1;P1;durP2;ratioP2;P2;SDS_P1;SDS_P2;PMS_P1;PMS_P2;Temp;Humidity;BMP_temperature;BMP_pressure;BME280_temperature;BME280_humidity;BME280_pressure;Samples;Min_cycle;Max_cycle;Signal;HPM_P1;HPM_P2
2023/07/28 00:00:09;;;;;;;4.45;2.97;;;;;;;;;;5108537;28;20028;-68
2023/07/28 00:05:39;;;;;;;4.35;3.10;;;;;;;;;;5066023;28;20017;-68
2023/07/28 00:08:09;;;;;;;5.05;3.30;;;;;;;;;;5066586;28;20066;-68
2023/07/28 00:10:55;;;;;;;5.55;3.22;;;;;;;;;;5121799;28;20054;-68
2023/07/28 00:13:32;;;;;;;4.53;3.00;;;;;;;;;;5108312;28;20074;-68
2023/07/28 00:16:21;;;;;;;5.43;3.08;;;;;;;;;;5115399;28;20024;-68
2023/07/28 00:18:51;;;;;;;4.60;3.03;;;;;;;;;;5088127;28;20035;-68
2023/07/28 00:21:36;;;;;;;4.82;2.90;;;;;;;;;;5115182;28;20498;-68
2023/07/28 00:24:21;;;;;;;3.60;2.90;;;;;;;;;;5115179;28;20024;-68
2023/07/28 00:27:07;;;;;;;3.78;3.00;;;;;;;;;;5115176;28;20481;-67
2023/07/28 00:29:34;;;;;;;4.78;3.00;;;;;;;;;;5097060;28;20024;-68
2023/07/28 00:32:00;;;;;;;3.22;2.47;;;;;;;;;;5115092;28;20038;-68
2023/07/28 00:34:27;;;;;;;4.60;2.83;;;;;;;;;;5114897;28;20423;-68
2023/07/28 00:36:53;;;;;;;4.50;3.20;;;;;;;;;;5115100;28;20110;-68
2023/07/28 00:39:23;;;;;;;4.45;2.80;;;;;;;;;;5114791;28;20028;-68
2023/07/28 00:42:09;;;;;;;5.60;2.90;;;;;;;;;;5114839;28;20046;-68
2023/07/28 00:44:35;;;;;;;4.00;2.80;;;;;;;;;;5114775;28;20431;-68
2023/07/28 00:47:02;;;;;;;4.10;3.08;;;;;;;;;;5114726;28;20534;-68
2023/07/28 00:49:28;;;;;;;3.80;2.60;;;;;;;;;;5114699;28;20381;-67
2023/07/28 00:51:55;;;;;;;3.40;2.60;;;;;;;;;;5114616;28;20119;-68
2023/07/28 00:57:18;;;;;;;3.97;2.80;;;;;;;;;;5095973;28;20027;-68
2023/07/28 01:00:01;;;;;;;3.35;2.55;;;;;;;;;;5113737;28;20088;-68
2023/07/28 01:02:34;;;;;;;2.90;2.50;;;;;;;;;;5113360;28;20505;-68
2023/07/28 01:05:00;;;;;;;3.80;2.55;;;;;;;;;;5114446;28;20470;-68
2023/07/28 01:10:08;;;;;;;3.50;2.60;;;;;;;;;;5130441;27;20301;-68
2023/07/28 01:12:37;;;;;;;3.45;2.67;;;;;;;;;;5109725;28;20477;-68
2023/07/28 01:15:06;;;;;;;4.75;2.40;;;;;;;;;;5109826;28;20081;-68
2023/07/28 01:17:51;;;;;;;3.58;2.42;;;;;;;;;;5109625;28;20035;-68
2023/07/28 01:20:18;;;;;;;5.10;2.92;;;;;;;;;;5109909;28;20458;-68
2023/07/28 01:25:46;;;;;;;3.00;2.40;;;;;;;;;;5109479;27;20381;-67
2023/07/28 01:28:30;;;;;;;3.28;2.45;;;;;;;;;;5110051;28;20031;-67
2023/07/28 01:30:57;;;;;;;3.75;2.60;;;;;;;;;;5109803;28;20042;-67
2023/07/28 01:33:51;;;;;;;3.38;2.45;;;;;;;;;;5109978;28;20020;-67
2023/07/28 01:36:32;;;;;;;;;;;;;;;;;;5110152;28;20027;-67
2023/07/28 01:39:21;;;;;;;3.47;2.60;;;;;;;;;;5109011;28;20269;-67
2023/07/28 01:41:58;;;;;;;;;;;;;;;;;;;;;
2023/07/28 01:44:24;;;;;;;3.47;2.50;;;;;;;;;;5106008;28;20036;-67
2023/07/28 01:46:50;;;;;;;4.68;2.80;;;;;;;;;;5109560;28;20462;-67
2023/07/28 01:49:19;;;;;;;2.90;2.35;;;;;;;;;;5109489;28;20472;-67
2023/07/28 01:51:45;;;;;;;2.88;2.40;;;;;;;;;;5109643;28;20554;-67
2023/07/28 01:57:27;;;;;;;2.83;2.30;;;;;;;;;;5046514;28;20466;-67
2023/07/28 02:00:17;;;;;;;2.80;2.35;;;;;;;;;;4986796;28;20429;-67
2023/07/28 02:03:01;;;;;;;3.72;2.50;;;;;;;;;;5038965;28;20484;-67
2023/07/28 02:08:47;;;;;;;3.15;2.38;;;;;;;;;;5046304;28;20029;-67
2023/07/28 02:14:37;;;;;;;5.75;2.50;;;;;;;;;;5046367;28;20450;-67
2023/07/28 02:20:18;;;;;;;3.58;2.40;;;;;;;;;;5088837;28;20035;-67
2023/07/28 02:23:06;;;;;;;4.35;2.60;;;;;;;;;;5108707;28;20077;-67
2023/07/28 02:26:13;;;;;;;3.13;2.20;;;;;;;;;;5107795;28;20553;-67
2023/07/28 02:28:40;;;;;;;3.20;2.55;;;;;;;;;;5108776;28;20504;-67
2023/07/28 02:31:25;;;;;;;3.13;2.28;;;;;;;;;;5107602;28;20032;-67
2023/07/28 02:39:24;;;;;;;4.63;2.30;;;;;;;;;;5095228;28;20157;-67
2023/07/28 02:41:50;;;;;;;2.60;2.40;;;;;;;;;;5094930;28;20024;-67
2023/07/28 02:44:16;;;;;;;3.53;2.15;;;;;;;;;;5094833;28;20039;-67
2023/07/28 02:46:43;;;;;;;3.10;2.40;;;;;;;;;;5094655;28;20102;-67
2023/07/28 02:49:09;;;;;;;3.05;2.35;;;;;;;;;;5094687;28;20036;-67
2023/07/28 02:51:36;;;;;;;3.28;2.45;;;;;;;;;;5094723;28;20388;-67
2023/07/28 02:54:03;;;;;;;3.63;2.30;;;;;;;;;;5094791;28;20513;-67
2023/07/28 02:56:34;;;;;;;2.55;2.33;;;;;;;;;;5094467;28;20493;-67
2023/07/28 02:59:01;;;;;;;4.25;2.42;;;;;;;;;;5094521;28;20051;-67
2023/07/28 03:01:28;;;;;;;2.97;2.38;;;;;;;;;;5094549;28;20556;-67
2023/07/28 03:12:49;;;;;;;3.38;2.53;;;;;;;;;;5011722;28;20539;-67
2023/07/28 03:15:15;;;;;;;2.83;2.30;;;;;;;;;;5086573;28;20474;-67
2023/07/28 03:17:42;;;;;;;2.50;2.20;;;;;;;;;;5076337;28;20510;-67
2023/07/28 03:20:08;;;;;;;3.13;2.30;;;;;;;;;;5094233;28;20040;-67
2023/07/28 03:22:34;;;;;;;2.60;2.30;;;;;;;;;;5093981;28;20027;-67
2023/07/28 03:25:00;;;;;;;3.80;2.30;;;;;;;;;;5093889;28;20044;-67
2023/07/28 03:27:26;;;;;;;3.72;2.33;;;;;;;;;;5094047;28;20080;-67
2023/07/28 03:30:00;;;;;;;4.00;2.53;;;;;;;;;;5093859;28;20082;-67
2023/07/28 03:32:26;;;;;;;3.90;2.58;;;;;;;;;;5093893;28;20050;-67
2023/07/28 03:34:53;;;;;;;5.43;2.63;;;;;;;;;;5093742;28;20031;-67
2023/07/28 03:37:19;;;;;;;3.00;2.20;;;;;;;;;;5093850;28;20219;-67
2023/07/28 03:39:46;;;;;;;4.25;2.58;;;;;;;;;;5093786;28;20032;-67
2023/07/28 03:42:12;;;;;;;3.92;2.60;;;;;;;;;;5093714;28;20027;-67
2023/07/28 03:44:39;;;;;;;3.42;2.50;;;;;;;;;;5093511;28;20028;-67
2023/07/28 03:47:06;;;;;;;3.97;2.60;;;;;;;;;;5092442;28;20028;-67
2023/07/28 03:49:32;;;;;;;4.10;2.50;;;;;;;;;;5093508;28;20078;-67
2023/07/28 03:51:59;;;;;;;3.20;2.42;;;;;;;;;;5093386;28;20137;-67
2023/07/28 03:54:25;;;;;;;4.82;2.40;;;;;;;;;;5093375;28;20032;-67
2023/07/28 03:57:00;;;;;;;4.72;2.60;;;;;;;;;;5093525;28;20032;-67
2023/07/28 03:59:35;;;;;;;4.93;2.50;;;;;;;;;;5093570;28;20064;-67
2023/07/28 04:02:08;;;;;;;3.65;2.45;;;;;;;;;;5093331;28;20028;-67
2023/07/28 04:04:36;;;;;;;4.50;2.85;;;;;;;;;;5093262;28;20470;-67
2023/07/28 04:07:02;;;;;;;3.60;2.60;;;;;;;;;;5093406;28;20027;-67
2023/07/28 04:09:28;;;;;;;3.70;2.50;;;;;;;;;;5093276;28;20373;-67
2023/07/28 04:11:54;;;;;;;4.80;2.53;;;;;;;;;;5093194;28;20505;-67
2023/07/28 04:14:36;;;;;;;4.10;2.63;;;;;;;;;;5093079;28;20028;-67
2023/07/28 04:17:18;;;;;;;4.30;2.63;;;;;;;;;;5093002;28;20032;-67
2023/07/28 04:19:44;;;;;;;5.25;2.80;;;;;;;;;;5093160;28;20087;-67
2023/07/28 04:22:11;;;;;;;5.93;2.92;;;;;;;;;;5092805;28;20024;-67
2023/07/28 04:24:37;;;;;;;4.25;2.60;;;;;;;;;;5092775;28;20079;-67
2023/07/28 04:27:22;;;;;;;4.95;2.80;;;;;;;;;;5092876;28;20459;-67
2023/07/28 04:30:04;;;;;;;6.38;2.90;;;;;;;;;;5092660;28;20060;-67
2023/07/28 04:32:30;;;;;;;4.13;2.60;;;;;;;;;;5092830;28;20032;-67
2023/07/28 04:35:02;;;;;;;3.15;2.60;;;;;;;;;;5092670;28;20433;-67
2023/07/28 04:37:29;;;;;;;5.50;2.70;;;;;;;;;;5092851;28;20032;-67
2023/07/28 04:39:55;;;;;;;5.93;3.08;;;;;;;;;;5092784;28;20039;-67
2023/07/28 04:42:21;;;;;;;3.75;2.75;;;;;;;;;;5092526;28;20105;-67
2023/07/28 04:44:47;;;;;;;4.60;2.90;;;;;;;;;;5092602;28;20103;-67
2023/07/28 04:47:13;;;;;;;5.65;2.80;;;;;;;;;;5092753;28;20434;-67
2023/07/28 04:49:40;;;;;;;5.53;2.75;;;;;;;;;;5092668;28;20478;-67
2023/07/28 04:52:06;;;;;;;5.05;3.15;;;;;;;;;;5092818;28;20035;-67
2023/07/28 04:54:32;;;;;;;5.50;3.03;;;;;;;;;;5092549;28;20485;-67
2023/07/28 04:57:01;;;;;;;7.18;3.20;;;;;;;;;;5092617;28;20382;-67
2023/07/28 04:59:28;;;;;;;5.28;3.03;;;;;;;;;;5092159;28;20031;-67
2023/07/28 05:01:54;;;;;;;7.38;3.40;;;;;;;;;;5092346;28;20031;-67
2023/07/28 05:04:20;;;;;;;5.80;3.22;;;;;;;;;;5092344;28;20035;-67
2023/07/28 05:06:47;;;;;;;7.05;3.50;;;;;;;;;;5092207;28;20489;-67
2023/07/28 05:09:16;;;;;;;6.07;3.00;;;;;;;;;;5092476;28;20108;-67
2023/07/28 05:11:42;;;;;;;4.88;3.17;;;;;;;;;;5092245;28;20161;-67
2023/07/28 05:14:09;;;;;;;5.50;2.90;;;;;;;;;;5074331;28;20028;-67
2023/07/28 05:16:35;;;;;;;6.18;3.10;;;;;;;;;;5092211;28;20070;-67
2023/07/28 05:21:56;;;;;;;4.88;3.25;;;;;;;;;;5092078;28;20089;-67
2023/07/28 05:24:22;;;;;;;4.72;3.08;;;;;;;;;;5091930;28;20051;-67
2023/07/28 05:26:48;;;;;;;4.47;2.97;;;;;;;;;;5092035;28;20512;-67
2023/07/28 05:29:14;;;;;;;5.10;3.08;;;;;;;;;;5092134;28;20020;-67
2023/07/28 05:31:41;;;;;;;7.00;3.33;;;;;;;;;;5091979;28;20492;-67
2023/07/28 05:34:07;;;;;;;7.97;3.50;;;;;;;;;;5092112;28;20462;-67
2023/07/28 05:36:33;;;;;;;4.78;3.20;;;;;;;;;;5092020;28;20028;-67
2023/07/28 05:38:59;;;;;;;6.57;3.33;;;;;;;;;;5092183;28;20079;-67
2023/07/28 05:41:25;;;;;;;5.78;3.40;;;;;;;;;;5091906;28;20489;-67
2023/07/28 05:43:51;;;;;;;7.35;3.33;;;;;;;;;;5091599;28;20059;-67
2023/07/28 05:46:18;;;;;;;7.10;3.47;;;;;;;;;;5091687;28;20044;-67
2023/07/28 05:48:44;;;;;;;6.35;3.40;;;;;;;;;;5091895;28;20497;-67
2023/07/28 05:51:10;;;;;;;5.47;3.45;;;;;;;;;;5091711;28;20470;-67
2023/07/28 05:53:37;;;;;;;6.15;3.22;;;;;;;;;;5091865;28;20437;-67
2023/07/28 05:56:12;;;;;;;7.35;3.70;;;;;;;;;;5091877;28;20470;-67
2023/07/28 05:58:41;;;;;;;6.93;3.55;;;;;;;;;;5091654;28;20119;-67
2023/07/28 06:01:28;;;;;;;6.43;3.88;;;;;;;;;;5091650;28;20031;-67
2023/07/28 06:04:00;;;;;;;5.22;3.30;;;;;;;;;;5073759;28;20024;-67
2023/07/28 06:06:27;;;;;;;7.97;3.60;;;;;;;;;;5091611;28;20425;-67
2023/07/28 06:08:53;;;;;;;6.53;3.53;;;;;;;;;;5091475;28;20017;-67
2023/07/28 06:11:20;;;;;;;5.15;3.60;;;;;;;;;;5093945;28;20024;-68
2023/07/28 06:13:46;;;;;;;5.22;3.47;;;;;;;;;;5095580;28;20039;-67
2023/07/28 06:16:15;;;;;;;4.68;3.38;;;;;;;;;;5095390;28;20030;-67
2023/07/28 06:18:42;;;;;;;7.18;3.70;;;;;;;;;;5095573;28;20374;-67
2023/07/28 06:21:08;;;;;;;6.03;3.85;;;;;;;;;;5095391;28;20153;-67
2023/07/28 06:23:35;;;;;;;7.07;3.78;;;;;;;;;;5094942;28;20035;-67
2023/07/28 06:26:01;;;;;;;5.28;3.42;;;;;;;;;;5095116;28;20026;-67
2023/07/28 06:28:27;;;;;;;7.05;3.72;;;;;;;;;;5095244;28;20028;-67
2023/07/28 06:30:55;;;;;;;7.97;3.60;;;;;;;;;;5095241;28;20474;-67
2023/07/28 06:33:21;;;;;;;8.52;3.80;;;;;;;;;;5095174;28;20042;-67
2023/07/28 06:35:47;;;;;;;5.28;3.47;;;;;;;;;;5095174;28;20362;-67
2023/07/28 06:38:13;;;;;;;5.00;3.35;;;;;;;;;;5094788;28;20032;-67
2023/07/28 06:40:39;;;;;;;8.15;3.47;;;;;;;;;;5094839;28;20381;-67
2023/07/28 06:43:07;;;;;;;9.18;3.70;;;;;;;;;;5094817;28;20039;-67
2023/07/28 06:45:33;;;;;;;11.45;3.53;;;;;;;;;;5095972;28;20028;-67
2023/07/28 06:47:59;;;;;;;13.10;3.85;;;;;;;;;;5115088;28;20027;-67
2023/07/28 06:50:26;;;;;;;10.18;3.72;;;;;;;;;;5082797;28;20055;-67
2023/07/28 06:55:39;;;;;;;11.27;3.80;;;;;;;;;;5052000;28;20029;-67
2023/07/28 06:56:02;;;;;;;9.40;3.78;;;;;;;;;;5074330;28;20032;-67
2023/07/28 06:58:11;;;;;;;8.85;3.40;;;;;;;;;;5082399;28;20040;-67
2023/07/28 07:00:38;;;;;;;8.45;3.47;;;;;;;;;;5091131;28;20032;-67
2023/07/28 07:03:05;;;;;;;7.28;3.20;;;;;;;;;;5077620;28;20118;-67
2023/07/28 07:05:32;;;;;;;6.95;3.00;;;;;;;;;;5094592;28;20462;-67
2023/07/28 07:08:01;;;;;;;11.20;3.58;;;;;;;;;;5094350;28;20024;-67
2023/07/28 07:10:28;;;;;;;6.88;3.22;;;;;;;;;;5092292;28;20858;-67
2023/07/28 07:18:27;;;;;;;6.78;3.20;;;;;;;;;;5063521;28;20028;-67
2023/07/28 07:20:56;;;;;;;7.40;3.13;;;;;;;;;;5077626;28;20036;-67
2023/07/28 07:23:22;;;;;;;7.95;3.55;;;;;;;;;;5075980;28;20556;-67
2023/07/28 07:25:56;;;;;;;6.40;3.25;;;;;;;;;;5091988;28;20020;-68
2023/07/28 07:28:22;;;;;;;4.97;3.35;;;;;;;;;;5083403;28;20370;-67
2023/07/28 07:30:49;;;;;;;8.68;3.35;;;;;;;;;;5087367;28;20382;-67
2023/07/28 07:33:15;;;;;;;8.43;3.60;;;;;;;;;;5094063;28;20484;-67
2023/07/28 07:35:41;;;;;;;6.00;3.30;;;;;;;;;;5092215;28;20024;-67
2023/07/28 07:38:09;;;;;;;5.63;3.65;;;;;;;;;;5073350;28;20474;-67
2023/07/28 07:44:05;;;;;;;7.78;4.95;;;;;;;;;;4991749;28;20127;-68
2023/07/28 07:46:31;;;;;;;7.28;4.75;;;;;;;;;;4991659;28;20400;-71
2023/07/28 07:49:05;;;;;;;7.53;4.88;;;;;;;;;;5084979;28;20497;-74
2023/07/28 08:04:04;;;;;;;7.90;4.10;;;;;;;;;;5019007;28;20187;-74
2023/07/28 08:09:38;;;;;;;6.63;3.70;;;;;;;;;;5010033;28;20048;-75
2023/07/28 08:12:05;;;;;;;6.70;3.33;;;;;;;;;;5010576;28;20260;-74
2023/07/28 08:14:31;;;;;;;6.72;3.17;;;;;;;;;;5033848;28;20058;-74
2023/07/28 08:17:03;;;;;;;7.28;3.30;;;;;;;;;;5077754;28;20024;-75
2023/07/28 08:19:35;;;;;;;6.85;3.67;;;;;;;;;;5076240;28;20104;-73
2023/07/28 08:22:05;;;;;;;6.95;3.55;;;;;;;;;;5083314;28;20054;-74
2023/07/28 08:24:32;;;;;;;6.93;3.30;;;;;;;;;;5092383;28;20048;-74
2023/07/28 08:27:16;;;;;;;7.18;3.33;;;;;;;;;;5085657;28;20016;-74
2023/07/28 08:29:55;;;;;;;6.25;3.45;;;;;;;;;;5071781;28;20496;-74
2023/07/28 08:41:05;;;;;;;6.90;3.38;;;;;;;;;;4998076;28;20440;-68
2023/07/28 08:44:26;;;;;;;;;;;;;;;;;;;;;
2023/07/28 08:46:23;;;;;;;4.60;3.30;;;;;;;;;;5073379;28;20028;-68
2023/07/28 08:48:52;;;;;;;4.93;3.20;;;;;;;;;;5083813;28;20052;-68
2023/07/28 08:51:18;;;;;;;40.55;10.45;;;;;;;;;;5092007;28;20060;-68
2023/07/28 08:53:51;;;;;;;12.43;5.13;;;;;;;;;;5096845;28;20051;-67
2023/07/28 08:56:35;;;;;;;18.40;5.40;;;;;;;;;;5092477;28;20032;-68
2023/07/28 08:59:31;;;;;;;14.57;5.20;;;;;;;;;;5078202;28;20269;-68
2023/07/28 09:01:59;;;;;;;13.13;4.78;;;;;;;;;;5070557;28;20115;-67
2023/07/28 09:04:25;;;;;;;8.60;4.80;;;;;;;;;;5083333;28;20092;-67
2023/07/28 09:07:07;;;;;;;;;;;;;;;;;;;;;
2023/07/28 09:09:37;;;;;;;10.63;4.82;;;;;;;;;;5076937;28;20025;-67
2023/07/28 09:12:04;;;;;;;12.85;4.97;;;;;;;;;;5100298;28;20034;-67
2023/07/28 09:14:46;;;;;;;9.20;4.55;;;;;;;;;;5096566;28;20028;-68
2023/07/28 09:17:19;;;;;;;10.50;4.40;;;;;;;;;;5092731;28;20039;-67
2023/07/28 09:19:57;;;;;;;9.30;4.57;;;;;;;;;;5095447;28;20020;-67
2023/07/28 09:22:26;;;;;;;7.95;4.13;;;;;;;;;;5089283;28;20112;-68
2023/07/28 09:28:22;;;;;;;7.80;4.15;;;;;;;;;;5052703;28;20112;-74
2023/07/28 09:34:10;;;;;;;8.75;4.20;;;;;;;;;;4998903;28;20045;-67
2023/07/28 09:36:38;;;;;;;7.03;4.10;;;;;;;;;;4989697;28;20504;-66
2023/07/28 09:39:08;;;;;;;6.00;4.25;;;;;;;;;;5075563;28;20043;-67
2023/07/28 09:41:38;;;;;;;7.30;4.03;;;;;;;;;;5092979;28;20024;-67
2023/07/28 09:44:10;;;;;;;7.40;4.03;;;;;;;;;;5089587;28;20719;-67
2023/07/28 09:46:44;;;;;;;8.87;3.70;;;;;;;;;;5082088;28;20066;-66
2023/07/28 09:49:36;;;;;;;7.03;4.13;;;;;;;;;;5089488;28;20032;-67
2023/07/28 09:52:27;;;;;;;6.97;3.85;;;;;;;;;;5085846;28;20063;-67
2023/07/28 09:54:58;;;;;;;6.32;4.00;;;;;;;;;;5101492;28;20355;-67
2023/07/28 09:57:28;;;;;;;8.45;4.25;;;;;;;;;;5079557;28;20356;-65
2023/07/28 10:00:01;;;;;;;10.55;3.88;;;;;;;;;;5077187;28;20025;-71
2023/07/28 10:02:28;;;;;;;6.05;3.67;;;;;;;;;;5075246;28;20033;-68
2023/07/28 10:04:54;;;;;;;5.53;3.70;;;;;;;;;;5079427;28;20036;-68
2023/07/28 10:07:25;;;;;;;5.78;3.80;;;;;;;;;;5074664;28;20028;-67
2023/07/28 10:09:51;;;;;;;7.15;3.83;;;;;;;;;;5095768;28;20040;-68
2023/07/28 10:12:25;;;;;;;7.60;4.00;;;;;;;;;;5106820;28;20042;-68
2023/07/28 10:15:03;;;;;;;6.65;3.80;;;;;;;;;;5110487;28;20027;-68
2023/07/28 10:17:36;;;;;;;6.15;3.70;;;;;;;;;;5075958;28;20028;-68
2023/07/28 10:20:09;;;;;;;6.25;4.18;;;;;;;;;;5082970;28;20036;-68
2023/07/28 10:22:55;;;;;;;6.40;3.67;;;;;;;;;;5082153;28;20102;-68
2023/07/28 10:25:23;;;;;;;5.05;3.80;;;;;;;;;;5104000;28;20044;-68
2023/07/28 10:27:52;;;;;;;5.43;3.60;;;;;;;;;;5115335;28;20026;-69
2023/07/28 10:30:30;;;;;;;5.75;3.75;;;;;;;;;;5115060;28;20046;-68
2023/07/28 10:32:57;;;;;;;6.22;3.88;;;;;;;;;;5115381;28;20423;-66
2023/07/28 10:35:25;;;;;;;6.60;3.47;;;;;;;;;;5115076;28;20032;-66
2023/07/28 10:37:58;;;;;;;5.25;3.50;;;;;;;;;;5108214;28;20023;-66
2023/07/28 10:43:36;;;;;;;5.80;3.53;;;;;;;;;;5094513;28;20120;-69
2023/07/28 10:46:17;;;;;;;6.05;3.38;;;;;;;;;;5093955;28;20039;-68
2023/07/28 10:48:50;;;;;;;4.90;3.40;;;;;;;;;;5094606;28;20036;-68
2023/07/28 10:51:32;;;;;;;4.63;3.25;;;;;;;;;;5099874;28;20039;-67
2023/07/28 10:54:25;;;;;;;5.70;3.30;;;;;;;;;;5110255;28;20019;-70
2023/07/28 10:57:38;;;;;;;;;;;;;;;;;;;;;
2023/07/28 11:03:28;;;;;;;5.40;3.20;;;;;;;;;;5070651;28;20027;-69
2023/07/28 11:05:56;;;;;;;6.15;3.72;;;;;;;;;;5048848;28;20032;-70
2023/07/28 11:11:26;;;;;;;6.82;3.47;;;;;;;;;;5075110;28;20032;-69
2023/07/28 11:14:26;;;;;;;6.68;3.38;;;;;;;;;;5073752;28;20113;-68
2023/07/28 11:16:53;;;;;;;9.15;3.65;;;;;;;;;;5083943;28;20106;-68
2023/07/28 11:22:23;;;;;;;7.15;3.15;;;;;;;;;;5078906;28;20030;-69
2023/07/28 11:24:51;;;;;;;5.03;3.00;;;;;;;;;;5083435;28;20055;-68
2023/07/28 11:27:17;;;;;;;6.32;3.40;;;;;;;;;;5073021;28;20028;-68
2023/07/28 11:29:44;;;;;;;6.13;3.40;;;;;;;;;;5072527;28;20033;-68
2023/07/28 11:32:16;;;;;;;4.53;3.03;;;;;;;;;;5085519;28;20032;-68
2023/07/28 11:35:05;;;;;;;5.90;3.42;;;;;;;;;;5093595;28;20020;-69
2023/07/28 11:37:31;;;;;;;5.05;3.30;;;;;;;;;;5086107;28;20025;-69
2023/07/28 11:39:59;;;;;;;4.03;2.92;;;;;;;;;;5082755;28;20077;-68
2023/07/28 11:42:27;;;;;;;4.22;2.70;;;;;;;;;;5092817;28;20081;-69
2023/07/28 11:44:53;;;;;;;4.75;3.10;;;;;;;;;;5081828;28;20029;-68
2023/07/28 11:47:41;;;;;;;5.00;3.00;;;;;;;;;;5086706;28;20735;-68
2023/07/28 11:50:07;;;;;;;6.13;3.15;;;;;;;;;;5090097;28;20048;-67
2023/07/28 11:52:35;;;;;;;4.05;3.00;;;;;;;;;;5085358;28;20033;-66
2023/07/28 11:55:06;;;;;;;12.65;3.50;;;;;;;;;;5073995;28;20364;-68
2023/07/28 11:58:14;;;;;;;5.57;2.83;;;;;;;;;;5092421;28;20028;-67
2023/07/28 12:10:34;;;;;;;5.00;3.10;;;;;;;;;;4993250;28;20041;-69
2023/07/28 12:13:05;;;;;;;4.78;3.08;;;;;;;;;;5067404;28;20075;-68
2023/07/28 12:15:32;;;;;;;3.75;2.55;;;;;;;;;;5080362;28;20059;-69
2023/07/28 12:20:49;;;;;;;8.18;3.35;;;;;;;;;;5087509;28;20395;-68
2023/07/28 12:23:15;;;;;;;;;;;;;;;;;;5067612;28;20067;-73
2023/07/28 12:25:45;;;;;;;4.90;3.00;;;;;;;;;;5068768;28;19940;-67
2023/07/28 12:28:15;;;;;;;5.95;2.92;;;;;;;;;;5067403;28;20060;-72
2023/07/28 12:30:41;;;;;;;6.65;3.20;;;;;;;;;;5065807;28;20556;-67
2023/07/28 12:33:08;;;;;;;6.00;2.70;;;;;;;;;;5067925;28;20400;-67
2023/07/28 12:35:35;;;;;;;5.90;3.08;;;;;;;;;;5071183;28;20028;-66
2023/07/28 12:38:05;;;;;;;7.43;3.20;;;;;;;;;;5070963;28;20064;-64
2023/07/28 12:40:32;;;;;;;5.32;3.03;;;;;;;;;;5068328;28;20039;-64
2023/07/28 12:43:02;;;;;;;4.63;2.80;;;;;;;;;;5068402;28;20074;-64
2023/07/28 12:45:28;;;;;;;4.82;3.10;;;;;;;;;;5068125;28;20112;-64
2023/07/28 12:47:55;;;;;;;4.85;3.10;;;;;;;;;;5059520;28;20029;-65
2023/07/28 12:50:21;;;;;;;4.82;2.70;;;;;;;;;;5071687;28;20533;-63
2023/07/28 12:55:37;;;;;;;5.30;3.03;;;;;;;;;;5075487;28;20049;-64
2023/07/28 12:58:03;;;;;;;7.60;3.20;;;;;;;;;;5068593;28;20119;-64
2023/07/28 13:00:30;;;;;;;5.22;3.03;;;;;;;;;;5071852;28;20024;-64
2023/07/28 13:02:56;;;;;;;7.03;3.03;;;;;;;;;;5069013;28;20028;-64
2023/07/28 13:05:23;;;;;;;4.45;2.78;;;;;;;;;;5075772;28;20101;-64
2023/07/28 13:07:50;;;;;;;6.55;3.20;;;;;;;;;;5066814;28;20016;-64
2023/07/28 13:10:16;;;;;;;4.93;3.20;;;;;;;;;;5072944;28;20550;-64
2023/07/28 13:12:42;;;;;;;8.43;3.13;;;;;;;;;;5073121;28;20036;-63
2023/07/28 13:15:09;;;;;;;5.20;2.67;;;;;;;;;;5068366;28;20111;-64
2023/07/28 13:17:35;;;;;;;4.88;3.20;;;;;;;;;;5075155;28;20036;-63
2023/07/28 13:20:02;;;;;;;7.35;3.25;;;;;;;;;;5069948;28;20474;-64
2023/07/28 13:22:28;;;;;;;6.72;3.20;;;;;;;;;;5068724;28;20088;-64
2023/07/28 13:24:55;;;;;;;5.38;2.90;;;;;;;;;;5069424;28;20029;-64
2023/07/28 13:27:21;;;;;;;7.93;3.00;;;;;;;;;;5069771;28;20770;-65
2023/07/28 13:29:50;;;;;;;7.03;3.40;;;;;;;;;;5079525;28;20081;-64
2023/07/28 13:32:18;;;;;;;3.85;2.88;;;;;;;;;;5036699;28;20029;-64
2023/07/28 13:34:45;;;;;;;5.85;3.10;;;;;;;;;;5057066;28;20104;-63
2023/07/28 13:37:11;;;;;;;5.38;2.90;;;;;;;;;;5054179;28;20037;-64
2023/07/28 13:39:37;;;;;;;4.57;2.80;;;;;;;;;;5054199;28;20756;-64
2023/07/28 13:42:17;;;;;;;;;;;;;;;;;;;;;
2023/07/28 13:44:53;;;;;;;4.32;2.78;;;;;;;;;;5048345;28;20051;-64
2023/07/28 13:47:19;;;;;;;5.50;2.90;;;;;;;;;;5054360;28;20854;-65
2023/07/28 13:49:46;;;;;;;3.47;2.53;;;;;;;;;;5054243;28;20064;-65
2023/07/28 13:52:12;;;;;;;3.80;2.72;;;;;;;;;;5050969;28;20025;-65
2023/07/28 13:54:39;;;;;;;3.45;2.50;;;;;;;;;;5061906;28;20386;-64
2023/07/28 13:57:05;;;;;;;3.92;2.70;;;;;;;;;;5058919;28;20033;-64
2023/07/28 13:59:40;;;;;;;4.50;2.90;;;;;;;;;;5053878;28;20037;-65
2023/07/28 14:02:08;;;;;;;4.45;2.80;;;;;;;;;;5051256;28;20083;-64
2023/07/28 14:04:34;;;;;;;5.40;3.13;;;;;;;;;;5052059;28;20091;-63
2023/07/28 14:07:03;;;;;;;6.13;2.92;;;;;;;;;;5056131;28;20514;-63
2023/07/28 14:09:37;;;;;;;3.58;2.50;;;;;;;;;;5060286;28;20098;-64
2023/07/28 14:12:04;;;;;;;5.07;2.65;;;;;;;;;;5054132;28;20036;-72
2023/07/28 14:14:31;;;;;;;3.25;2.47;;;;;;;;;;5051516;28;20446;-71
2023/07/28 14:16:57;;;;;;;5.25;2.80;;;;;;;;;;5053069;28;20029;-71
2023/07/28 14:19:24;;;;;;;4.97;2.88;;;;;;;;;;5051716;28;20056;-72
2023/07/28 14:21:50;;;;;;;3.58;2.63;;;;;;;;;;5051189;28;20021;-72
2023/07/28 14:24:16;;;;;;;4.20;2.65;;;;;;;;;;5059133;28;20024;-72
2023/07/28 14:26:42;;;;;;;3.08;2.50;;;;;;;;;;5062012;28;20021;-72
2023/07/28 14:29:09;;;;;;;3.13;2.60;;;;;;;;;;5057776;28;20107;-72
2023/07/28 14:31:35;;;;;;;3.78;2.33;;;;;;;;;;5070467;28;20028;-72
2023/07/28 14:34:01;;;;;;;4.43;2.45;;;;;;;;;;5053315;28;20041;-71
2023/07/28 14:36:28;;;;;;;4.72;2.80;;;;;;;;;;5064021;28;20021;-71
2023/07/28 14:38:54;;;;;;;2.88;2.47;;;;;;;;;;5060452;28;20520;-71
2023/07/28 14:41:20;;;;;;;3.05;2.33;;;;;;;;;;5057920;28;20791;-71
2023/07/28 14:43:47;;;;;;;3.35;2.33;;;;;;;;;;5060423;28;20088;-71
2023/07/28 14:46:13;;;;;;;3.25;2.47;;;;;;;;;;5055010;28;20029;-71
2023/07/28 14:48:39;;;;;;;3.28;2.35;;;;;;;;;;5064925;28;20458;-67
2023/07/28 14:51:06;;;;;;;4.47;2.80;;;;;;;;;;5061077;28;20021;-67
2023/07/28 14:53:34;;;;;;;2.90;2.50;;;;;;;;;;5052728;28;20357;-67
2023/07/28 14:56:03;;;;;;;3.10;2.50;;;;;;;;;;5050857;28;20044;-67
2023/07/28 14:58:33;;;;;;;3.55;2.50;;;;;;;;;;5053483;28;20063;-68
2023/07/28 15:00:59;;;;;;;4.05;2.50;;;;;;;;;;5052050;28;20021;-66
2023/07/28 15:03:27;;;;;;;3.03;2.50;;;;;;;;;;5051580;28;20032;-66
2023/07/28 15:05:55;;;;;;;4.88;2.63;;;;;;;;;;5051889;28;20040;-66
2023/07/28 15:08:21;;;;;;;4.10;2.80;;;;;;;;;;5050874;28;20098;-66
2023/07/28 15:10:48;;;;;;;5.05;2.90;;;;;;;;;;5034212;28;20028;-66
2023/07/28 15:13:14;;;;;;;5.57;2.97;;;;;;;;;;5052993;28;20029;-66
2023/07/28 15:15:40;;;;;;;5.13;2.92;;;;;;;;;;5052500;28;20104;-66
2023/07/28 15:18:07;;;;;;;5.20;3.00;;;;;;;;;;5052491;28;20475;-66
2023/07/28 15:20:43;;;;;;;5.70;3.17;;;;;;;;;;5052240;28;20143;-66
2023/07/28 15:23:10;;;;;;;4.63;2.95;;;;;;;;;;5052639;28;20029;-66
2023/07/28 15:25:42;;;;;;;5.35;3.20;;;;;;;;;;5052358;28;20083;-66
2023/07/28 15:28:10;;;;;;;4.67;2.93;;;;;;;;;;5051357;28;20120;-66
2023/07/28 15:30:36;;;;;;;4.88;3.22;;;;;;;;;;5052537;28;20024;-66
2023/07/28 15:33:03;;;;;;;5.72;3.00;;;;;;;;;;5052550;28;20032;-66
2023/07/28 15:35:29;;;;;;;5.53;3.30;;;;;;;;;;5052358;28;20025;-66
2023/07/28 15:37:58;;;;;;;5.10;3.22;;;;;;;;;;5052561;28;20037;-66
2023/07/28 15:40:24;;;;;;;4.97;3.28;;;;;;;;;;5051957;28;20025;-66
2023/07/28 15:42:51;;;;;;;5.80;3.50;;;;;;;;;;5052343;28;20067;-66
2023/07/28 15:45:20;;;;;;;5.40;3.60;;;;;;;;;;5052074;28;20108;-67
2023/07/28 15:47:50;;;;;;;4.60;3.45;;;;;;;;;;5052410;28;20060;-66
2023/07/28 15:50:19;;;;;;;5.93;3.90;;;;;;;;;;5052068;28;20051;-66
2023/07/28 15:52:45;;;;;;;5.45;3.60;;;;;;;;;;5051774;28;20052;-67
2023/07/28 15:55:35;;;;;;;6.35;3.95;;;;;;;;;;5051815;28;20053;-67
2023/07/28 15:58:02;;;;;;;6.80;4.15;;;;;;;;;;5038072;28;20029;-67
2023/07/28 16:00:28;;;;;;;9.05;5.03;;;;;;;;;;5051744;28;20095;-66
2023/07/28 16:02:55;;;;;;;6.78;4.07;;;;;;;;;;5051979;28;20025;-67
2023/07/28 16:05:21;;;;;;;5.25;4.10;;;;;;;;;;5051837;28;20476;-67
2023/07/28 16:07:47;;;;;;;5.35;4.25;;;;;;;;;;5051929;28;20029;-67
2023/07/28 16:10:13;;;;;;;5.65;4.10;;;;;;;;;;5051872;28;20440;-66
2023/07/28 16:12:40;;;;;;;6.88;4.40;;;;;;;;;;5051830;28;20427;-66
2023/07/28 16:15:09;;;;;;;6.32;4.00;;;;;;;;;;5051687;28;20029;-66
2023/07/28 16:17:36;;;;;;;6.85;4.20;;;;;;;;;;5051831;28;20371;-67
2023/07/28 16:20:03;;;;;;;7.90;4.00;;;;;;;;;;5051324;28;20068;-66
2023/07/28 16:22:29;;;;;;;8.20;3.78;;;;;;;;;;5034148;28;20021;-67
2023/07/28 16:24:55;;;;;;;5.45;3.80;;;;;;;;;;5051658;28;20458;-66
2023/07/28 16:27:22;;;;;;;5.13;3.70;;;;;;;;;;5051778;28;20047;-66
2023/07/28 16:29:51;;;;;;;5.22;3.75;;;;;;;;;;5051587;28;20356;-66
2023/07/28 16:32:17;;;;;;;7.68;4.18;;;;;;;;;;5051754;28;20390;-66
2023/07/28 16:34:44;;;;;;;6.38;3.70;;;;;;;;;;5051639;28;20390;-67
2023/07/28 16:37:10;;;;;;;6.03;3.90;;;;;;;;;;5051530;28;20489;-67
2023/07/28 16:39:36;;;;;;;6.03;3.90;;;;;;;;;;5051519;28;20060;-66
2023/07/28 16:42:03;;;;;;;6.05;3.80;;;;;;;;;;5051584;28;20025;-67
2023/07/28 16:44:30;;;;;;;5.90;4.00;;;;;;;;;;5051396;28;20024;-66
2023/07/28 16:46:56;;;;;;;5.45;3.70;;;;;;;;;;5051584;28;20098;-66
2023/07/28 16:49:26;;;;;;;8.32;3.67;;;;;;;;;;5051666;28;20555;-66
2023/07/28 16:51:52;;;;;;;5.45;3.53;;;;;;;;;;5051489;28;20036;-67
2023/07/28 16:54:34;;;;;;;6.93;3.80;;;;;;;;;;5051503;28;20087;-66